Centreville, VA (20120)

7:49 PM EST on December 22, 2014 (GMT -0500)
CENTREweather | Change Station
CLOSE
Current Station
Personal Weather Station
Location: Centreville, VA
Elevation: 262 ft
Nearby Weather Stations

Elev 262 ft 38.85 °N, 77.46 °W | Updated 11 seconds ago

Rain
Rain
33.4 °F
Feels Like 33 °F
N
0.0
Wind Variable Wind from NNE
Gusts 10.0 mph

Today
High -- | Low -- °F
--% Chance of Precip.
Yesterday
High -- | Low -- °F
Precip. -- in
7:25 AM 4:51 PM
New Moon, 1% visible
Pressure 30.18 in
Visibility 1.2 miles
Clouds Overcast 400 ft
Windchill 33 °F
Dew Point 31 °F
Humidity 92%
Rainfall 0.20 in
Snow Depth Not available.
UV 0.0 out of 12
Pollen .10 out of 12
Air Quality Not available.
Flu Activity Not available.
METAR KIAD 222352Z 34007KT 1 1/4SM -RA BR OVC004 00/M01 A3017 RMK AO2 SFC VIS 1 1/2 SLP220 P0003 60015 T00001006 10006 20000 53002

More Conditions Fewer Conditions

Pressure 30.18 in
Visibility 1.2 miles
Clouds Overcast 400 ft
Windchill 33 °F
Dew Point 31 °F
Humidity 92%
Rainfall 0.20 in
Snow Depth Not available.
UV 0.0 out of 12
Pollen .10 out of 12
Air Quality Not available.
Flu Activity Not available.
METAR KIAD 222352Z 34007KT 1 1/4SM -RA BR OVC004 00/M01 A3017 RMK AO2 SFC VIS 1 1/2 SLP220 P0003 60015 T00001006 10006 20000 53002

More Conditions Fewer Conditions

10-Day Weather Forecast

Almanac

Astronomy

Dec. 22, 2014 Rise Set
Actual Time
Civil Twilight
Nautical Twilight
Astronomical Twilight
Moon
Length of Visible Light
Length of Day
Tomorrow will be .
, % of the Moon is Illuminated

Today's Extremes

State Highs State Lows

Community

WunderPhotos

Upload Photos

1,779,740 photos uploaded!

WunderBlogs® & News

Nearby

Air Quality

  Air Quality AQ Index Pollutant
Not available.

Snow Depth

Station Depth Elevation

Earthquake Activity

City Distance Mag. Time & Date
Minimum magnitude displayed is 2.5.

Coastal Water Temperatures

Place Temperature

Nearby Weather Stations